sensor_id;sensor_type;location;lat;lon;timestamp;P1;durP1;ratioP1;P2;durP2;ratioP2
48791;SDS011;34587;48.816;9.420;2023-03-23T00:01:47;6.93;;;1.55;;
48791;SDS011;34587;48.816;9.420;2023-03-23T00:04:14;0.90;;;0.85;;
48791;SDS011;34587;48.816;9.420;2023-03-23T00:06:43;0.90;;;0.90;;
48791;SDS011;34587;48.816;9.420;2023-03-23T00:09:10;1.48;;;1.30;;
48791;SDS011;34587;48.816;9.420;2023-03-23T00:11:37;1.13;;;1.13;;
48791;SDS011;34587;48.816;9.420;2023-03-23T00:14:03;0.88;;;0.88;;
48791;SDS011;34587;48.816;9.420;2023-03-23T00:16:30;0.90;;;0.90;;
48791;SDS011;34587;48.816;9.420;2023-03-23T00:19:04;4.32;;;2.45;;
48791;SDS011;34587;48.816;9.420;2023-03-23T00:21:32;1.00;;;1.00;;
48791;SDS011;34587;48.816;9.420;2023-03-23T00:24:09;4.82;;;1.00;;
48791;SDS011;34587;48.816;9.420;2023-03-23T00:26:41;0.80;;;0.80;;
48791;SDS011;34587;48.816;9.420;2023-03-23T00:29:10;1.00;;;1.00;;
48791;SDS011;34587;48.816;9.420;2023-03-23T00:31:41;4.68;;;1.20;;
48791;SDS011;34587;48.816;9.420;2023-03-23T00:34:11;0.52;;;0.52;;
48791;SDS011;34587;48.816;9.420;2023-03-23T00:36:37;0.65;;;0.65;;
48791;SDS011;34587;48.816;9.420;2023-03-23T00:39:07;0.70;;;0.70;;
48791;SDS011;34587;48.816;9.420;2023-03-23T00:41:33;0.88;;;0.88;;
48791;SDS011;34587;48.816;9.420;2023-03-23T00:44:01;0.85;;;0.85;;
48791;SDS011;34587;48.816;9.420;2023-03-23T00:46:28;1.35;;;1.23;;
48791;SDS011;34587;48.816;9.420;2023-03-23T00:48:54;6.38;;;1.13;;
48791;SDS011;34587;48.816;9.420;2023-03-23T00:51:21;1.63;;;0.85;;
48791;SDS011;34587;48.816;9.420;2023-03-23T00:53:48;1.55;;;0.70;;
48791;SDS011;34587;48.816;9.420;2023-03-23T00:56:13;0.73;;;0.73;;
48791;SDS011;34587;48.816;9.420;2023-03-23T00:58:39;0.60;;;0.60;;
48791;SDS011;34587;48.816;9.420;2023-03-23T05:16:24;0.88;;;0.88;;
48791;SDS011;34587;48.816;9.420;2023-03-23T05:18:50;3.60;;;0.82;;
48791;SDS011;34587;48.816;9.420;2023-03-23T05:21:15;1.70;;;1.45;;
48791;SDS011;34587;48.816;9.420;2023-03-23T05:23:40;7.00;;;2.30;;
48791;SDS011;34587;48.816;9.420;2023-03-23T05:26:06;0.70;;;0.70;;
48791;SDS011;34587;48.816;9.420;2023-03-23T05:28:31;0.75;;;0.75;;
48791;SDS011;34587;48.816;9.420;2023-03-23T05:30:56;0.95;;;0.95;;
48791;SDS011;34587;48.816;9.420;2023-03-23T05:33:22;0.65;;;0.65;;
48791;SDS011;34587;48.816;9.420;2023-03-23T05:35:47;1.40;;;0.95;;
48791;SDS011;34587;48.816;9.420;2023-03-23T05:38:13;0.80;;;0.80;;
48791;SDS011;34587;48.816;9.420;2023-03-23T05:40:39;0.82;;;0.82;;
48791;SDS011;34587;48.816;9.420;2023-03-23T05:43:06;0.63;;;0.63;;
48791;SDS011;34587;48.816;9.420;2023-03-23T05:45:32;1.70;;;0.85;;
48791;SDS011;34587;48.816;9.420;2023-03-23T05:47:58;4.45;;;1.30;;
48791;SDS011;34587;48.816;9.420;2023-03-23T05:50:24;3.40;;;2.08;;
48791;SDS011;34587;48.816;9.420;2023-03-23T05:52:49;0.77;;;0.77;;
48791;SDS011;34587;48.816;9.420;2023-03-23T05:55:15;1.85;;;1.17;;
48791;SDS011;34587;48.816;9.420;2023-03-23T05:57:40;1.48;;;0.80;;
48791;SDS011;34587;48.816;9.420;2023-03-23T06:00:06;0.75;;;0.75;;
48791;SDS011;34587;48.816;9.420;2023-03-23T06:02:36;0.50;;;0.50;;
48791;SDS011;34587;48.816;9.420;2023-03-23T06:05:02;2.50;;;1.13;;
48791;SDS011;34587;48.816;9.420;2023-03-23T06:07:27;8.82;;;1.02;;
48791;SDS011;34587;48.816;9.420;2023-03-23T06:09:52;0.70;;;0.70;;
48791;SDS011;34587;48.816;9.420;2023-03-23T06:12:18;0.85;;;0.85;;
48791;SDS011;34587;48.816;9.420;2023-03-23T06:14:45;0.88;;;0.88;;
48791;SDS011;34587;48.816;9.420;2023-03-23T06:17:11;1.23;;;1.13;;
48791;SDS011;34587;48.816;9.420;2023-03-23T06:19:36;0.75;;;0.73;;
48791;SDS011;34587;48.816;9.420;2023-03-23T06:22:02;0.82;;;0.70;;
48791;SDS011;34587;48.816;9.420;2023-03-23T06:24:27;1.75;;;1.02;;
48791;SDS011;34587;48.816;9.420;2023-03-23T06:26:52;1.48;;;0.88;;
48791;SDS011;34587;48.816;9.420;2023-03-23T06:29:18;1.00;;;1.00;;
48791;SDS011;34587;48.816;9.420;2023-03-23T06:31:44;1.13;;;0.90;;
48791;SDS011;34587;48.816;9.420;2023-03-23T06:34:12;1.07;;;0.97;;
48791;SDS011;34587;48.816;9.420;2023-03-23T06:36:37;1.60;;;1.50;;
48791;SDS011;34587;48.816;9.420;2023-03-23T06:39:03;0.60;;;0.60;;
48791;SDS011;34587;48.816;9.420;2023-03-23T06:41:30;2.55;;;1.42;;
48791;SDS011;34587;48.816;9.420;2023-03-23T06:43:56;1.15;;;1.00;;
48791;SDS011;34587;48.816;9.420;2023-03-23T06:46:22;0.60;;;0.60;;
48791;SDS011;34587;48.816;9.420;2023-03-23T06:48:47;2.03;;;1.00;;
48791;SDS011;34587;48.816;9.420;2023-03-23T06:51:14;1.05;;;1.05;;
48791;SDS011;34587;48.816;9.420;2023-03-23T06:53:40;3.20;;;1.75;;
48791;SDS011;34587;48.816;9.420;2023-03-23T06:56:05;1.40;;;1.25;;
48791;SDS011;34587;48.816;9.420;2023-03-23T06:58:31;2.20;;;1.98;;
48791;SDS011;34587;48.816;9.420;2023-03-23T07:00:57;1.67;;;1.58;;
48791;SDS011;34587;48.816;9.420;2023-03-23T07:03:23;2.08;;;1.38;;
48791;SDS011;34587;48.816;9.420;2023-03-23T07:05:48;2.03;;;1.38;;
48791;SDS011;34587;48.816;9.420;2023-03-23T07:08:15;2.75;;;1.52;;
48791;SDS011;34587;48.816;9.420;2023-03-23T07:10:40;1.38;;;1.30;;
48791;SDS011;34587;48.816;9.420;2023-03-23T07:13:05;0.85;;;0.85;;
48791;SDS011;34587;48.816;9.420;2023-03-23T07:15:31;1.15;;;1.05;;
48791;SDS011;34587;48.816;9.420;2023-03-23T07:17:57;2.20;;;2.00;;
48791;SDS011;34587;48.816;9.420;2023-03-23T07:20:22;3.65;;;2.33;;
48791;SDS011;34587;48.816;9.420;2023-03-23T07:22:47;14.90;;;4.47;;
48791;SDS011;34587;48.816;9.420;2023-03-23T07:25:13;20.90;;;7.72;;
48791;SDS011;34587;48.816;9.420;2023-03-23T07:27:38;46.95;;;13.77;;
48791;SDS011;34587;48.816;9.420;2023-03-23T07:30:04;35.28;;;13.98;;
48791;SDS011;34587;48.816;9.420;2023-03-23T07:32:30;46.28;;;13.07;;
48791;SDS011;34587;48.816;9.420;2023-03-23T07:34:56;31.98;;;10.57;;
48791;SDS011;34587;48.816;9.420;2023-03-23T07:37:21;15.93;;;6.25;;
48791;SDS011;34587;48.816;9.420;2023-03-23T07:39:47;32.85;;;7.68;;
48791;SDS011;34587;48.816;9.420;2023-03-23T07:42:13;18.30;;;3.83;;
48791;SDS011;34587;48.816;9.420;2023-03-23T07:44:38;10.43;;;3.65;;
48791;SDS011;34587;48.816;9.420;2023-03-23T07:47:03;3.95;;;1.83;;
48791;SDS011;34587;48.816;9.420;2023-03-23T07:49:29;5.97;;;1.85;;
48791;SDS011;34587;48.816;9.420;2023-03-23T07:51:56;8.23;;;2.55;;
48791;SDS011;34587;48.816;9.420;2023-03-23T07:54:22;0.52;;;0.52;;
48791;SDS011;34587;48.816;9.420;2023-03-23T07:56:48;0.68;;;0.68;;
48791;SDS011;34587;48.816;9.420;2023-03-23T07:59:13;5.97;;;1.08;;
48791;SDS011;34587;48.816;9.420;2023-03-23T08:01:38;1.38;;;0.57;;
48791;SDS011;34587;48.816;9.420;2023-03-23T08:04:04;0.70;;;0.70;;
48791;SDS011;34587;48.816;9.420;2023-03-23T08:06:31;2.15;;;0.47;;
48791;SDS011;34587;48.816;9.420;2023-03-23T08:08:58;0.40;;;0.40;;
48791;SDS011;34587;48.816;9.420;2023-03-23T08:11:25;0.35;;;0.35;;
48791;SDS011;34587;48.816;9.420;2023-03-23T08:13:50;0.50;;;0.50;;
48791;SDS011;34587;48.816;9.420;2023-03-23T08:16:17;0.68;;;0.68;;
48791;SDS011;34587;48.816;9.420;2023-03-23T08:18:43;1.58;;;1.00;;
48791;SDS011;34587;48.816;9.420;2023-03-23T08:21:09;0.68;;;0.68;;
48791;SDS011;34587;48.816;9.420;2023-03-23T08:23:35;0.47;;;0.40;;
48791;SDS011;34587;48.816;9.420;2023-03-23T08:26:04;0.30;;;0.30;;
48791;SDS011;34587;48.816;9.420;2023-03-23T08:28:32;0.65;;;0.47;;
48791;SDS011;34587;48.816;9.420;2023-03-23T08:30:59;0.82;;;0.63;;
48791;SDS011;34587;48.816;9.420;2023-03-23T08:33:24;0.30;;;0.30;;
48791;SDS011;34587;48.816;9.420;2023-03-23T08:35:56;0.55;;;0.55;;
48791;SDS011;34587;48.816;9.420;2023-03-23T08:38:23;0.20;;;0.20;;
48791;SDS011;34587;48.816;9.420;2023-03-23T08:40:48;1.25;;;0.73;;
48791;SDS011;34587;48.816;9.420;2023-03-23T08:43:15;0.30;;;0.30;;
48791;SDS011;34587;48.816;9.420;2023-03-23T08:45:40;1.95;;;0.63;;
48791;SDS011;34587;48.816;9.420;2023-03-23T08:48:06;1.20;;;0.80;;
48791;SDS011;34587;48.816;9.420;2023-03-23T08:50:32;0.70;;;0.70;;
48791;SDS011;34587;48.816;9.420;2023-03-23T08:52:58;0.30;;;0.30;;
48791;SDS011;34587;48.816;9.420;2023-03-23T08:55:23;0.65;;;0.65;;
48791;SDS011;34587;48.816;9.420;2023-03-23T08:57:49;0.50;;;0.50;;
48791;SDS011;34587;48.816;9.420;2023-03-23T09:00:16;0.35;;;0.35;;
48791;SDS011;34587;48.816;9.420;2023-03-23T09:02:44;0.55;;;0.55;;
48791;SDS011;34587;48.816;9.420;2023-03-23T09:05:12;0.35;;;0.35;;
48791;SDS011;34587;48.816;9.420;2023-03-23T09:07:39;0.50;;;0.50;;
48791;SDS011;34587;48.816;9.420;2023-03-23T09:10:06;0.50;;;0.50;;
48791;SDS011;34587;48.816;9.420;2023-03-23T09:12:32;2.17;;;0.63;;
48791;SDS011;34587;48.816;9.420;2023-03-23T09:14:58;0.50;;;0.50;;
48791;SDS011;34587;48.816;9.420;2023-03-23T09:17:23;0.35;;;0.35;;
48791;SDS011;34587;48.816;9.420;2023-03-23T09:19:48;0.52;;;0.52;;
48791;SDS011;34587;48.816;9.420;2023-03-23T09:22:14;0.65;;;0.60;;
48791;SDS011;34587;48.816;9.420;2023-03-23T09:24:40;0.30;;;0.30;;
48791;SDS011;34587;48.816;9.420;2023-03-23T09:27:05;0.52;;;0.40;;
48791;SDS011;34587;48.816;9.420;2023-03-23T09:29:31;0.35;;;0.35;;
48791;SDS011;34587;48.816;9.420;2023-03-23T09:31:56;0.40;;;0.40;;
48791;SDS011;34587;48.816;9.420;2023-03-23T09:34:22;0.63;;;0.35;;
48791;SDS011;34587;48.816;9.420;2023-03-23T09:36:47;0.40;;;0.40;;
48791;SDS011;34587;48.816;9.420;2023-03-23T09:39:14;0.45;;;0.45;;
48791;SDS011;34587;48.816;9.420;2023-03-23T09:49:15;0.30;;;0.30;;
48791;SDS011;34587;48.816;9.420;2023-03-23T09:51:56;1.55;;;0.30;;
48791;SDS011;34587;48.816;9.420;2023-03-23T09:54:28;0.30;;;0.30;;
48791;SDS011;34587;48.816;9.420;2023-03-23T09:56:57;0.30;;;0.30;;
48791;SDS011;34587;48.816;9.420;2023-03-23T09:59:41;0.50;;;0.50;;
48791;SDS011;34587;48.816;9.420;2023-03-23T10:02:15;1.27;;;0.55;;
48791;SDS011;34587;48.816;9.420;2023-03-23T10:07:49;1.27;;;0.30;;
48791;SDS011;34587;48.816;9.420;2023-03-23T10:10:14;0.30;;;0.30;;
48791;SDS011;34587;48.816;9.420;2023-03-23T10:12:46;0.40;;;0.40;;
48791;SDS011;34587;48.816;9.420;2023-03-23T10:15:20;0.90;;;0.38;;
48791;SDS011;34587;48.816;9.420;2023-03-23T10:17:59;0.73;;;0.73;;
48791;SDS011;34587;48.816;9.420;2023-03-23T10:23:11;0.80;;;0.80;;
48791;SDS011;34587;48.816;9.420;2023-03-23T10:25:52;0.75;;;0.55;;
48791;SDS011;34587;48.816;9.420;2023-03-23T10:28:41;0.35;;;0.35;;
48791;SDS011;34587;48.816;9.420;2023-03-23T10:31:22;1.45;;;0.65;;
48791;SDS011;34587;48.816;9.420;2023-03-23T10:33:51;0.85;;;0.60;;
48791;SDS011;34587;48.816;9.420;2023-03-23T10:41:25;0.50;;;0.50;;
48791;SDS011;34587;48.816;9.420;2023-03-23T10:43:51;0.30;;;0.30;;
48791;SDS011;34587;48.816;9.420;2023-03-23T10:49:12;0.28;;;0.28;;
48791;SDS011;34587;48.816;9.420;2023-03-23T10:51:44;0.60;;;0.40;;
48791;SDS011;34587;48.816;9.420;2023-03-23T10:54:24;3.80;;;0.70;;
48791;SDS011;34587;48.816;9.420;2023-03-23T10:56:51;0.20;;;0.20;;
48791;SDS011;34587;48.816;9.420;2023-03-23T10:59:25;0.45;;;0.45;;
48791;SDS011;34587;48.816;9.420;2023-03-23T11:01:55;1.17;;;0.40;;
48791;SDS011;34587;48.816;9.420;2023-03-23T11:04:23;0.25;;;0.25;;
48791;SDS011;34587;48.816;9.420;2023-03-23T11:06:51;0.47;;;0.45;;
48791;SDS011;34587;48.816;9.420;2023-03-23T11:09:21;0.28;;;0.28;;
48791;SDS011;34587;48.816;9.420;2023-03-23T11:11:57;1.23;;;0.82;;
48791;SDS011;34587;48.816;9.420;2023-03-23T11:14:27;0.40;;;0.40;;
48791;SDS011;34587;48.816;9.420;2023-03-23T11:16:55;0.95;;;0.95;;
48791;SDS011;34587;48.816;9.420;2023-03-23T11:19:29;0.40;;;0.40;;
48791;SDS011;34587;48.816;9.420;2023-03-23T11:24:33;0.60;;;0.60;;
48791;SDS011;34587;48.816;9.420;2023-03-23T11:27:01;0.50;;;0.50;;
48791;SDS011;34587;48.816;9.420;2023-03-23T11:29:31;1.95;;;0.32;;
48791;SDS011;34587;48.816;9.420;2023-03-23T11:34:24;0.50;;;0.50;;
48791;SDS011;34587;48.816;9.420;2023-03-23T11:36:58;0.57;;;0.57;;
48791;SDS011;34587;48.816;9.420;2023-03-23T11:39:32;0.50;;;0.50;;
48791;SDS011;34587;48.816;9.420;2023-03-23T11:42:00;0.40;;;0.40;;
48791;SDS011;34587;48.816;9.420;2023-03-23T11:44:43;0.30;;;0.30;;
48791;SDS011;34587;48.816;9.420;2023-03-23T11:47:20;0.30;;;0.30;;
48791;SDS011;34587;48.816;9.420;2023-03-23T11:52:38;0.50;;;0.40;;
48791;SDS011;34587;48.816;9.420;2023-03-23T11:55:11;0.68;;;0.65;;
48791;SDS011;34587;48.816;9.420;2023-03-23T11:57:40;1.50;;;0.70;;
48791;SDS011;34587;48.816;9.420;2023-03-23T12:00:16;1.00;;;0.40;;
48791;SDS011;34587;48.816;9.420;2023-03-23T12:06:06;0.40;;;0.40;;
48791;SDS011;34587;48.816;9.420;2023-03-23T12:11:33;0.43;;;0.43;;
48791;SDS011;34587;48.816;9.420;2023-03-23T12:14:08;0.30;;;0.30;;
48791;SDS011;34587;48.816;9.420;2023-03-23T12:29:58;0.57;;;0.57;;
48791;SDS011;34587;48.816;9.420;2023-03-23T12:43:15;0.50;;;0.50;;
48791;SDS011;34587;48.816;9.420;2023-03-23T12:48:28;5.78;;;0.70;;
48791;SDS011;34587;48.816;9.420;2023-03-23T12:53:49;0.40;;;0.40;;
48791;SDS011;34587;48.816;9.420;2023-03-23T12:56:23;0.73;;;0.40;;
48791;SDS011;34587;48.816;9.420;2023-03-23T13:01:56;0.40;;;0.40;;
48791;SDS011;34587;48.816;9.420;2023-03-23T13:04:35;0.50;;;0.50;;
48791;SDS011;34587;48.816;9.420;2023-03-23T13:07:10;1.48;;;0.90;;
48791;SDS011;34587;48.816;9.420;2023-03-23T13:12:29;0.47;;;0.47;;
48791;SDS011;34587;48.816;9.420;2023-03-23T13:17:35;0.40;;;0.30;;
48791;SDS011;34587;48.816;9.420;2023-03-23T13:23:05;0.30;;;0.30;;
48791;SDS011;34587;48.816;9.420;2023-03-23T13:26:00;0.47;;;0.47;;
48791;SDS011;34587;48.816;9.420;2023-03-23T13:29:35;0.45;;;0.45;;
48791;SDS011;34587;48.816;9.420;2023-03-23T13:31:43;0.52;;;0.52;;
48791;SDS011;34587;48.816;9.420;2023-03-23T13:34:15;0.20;;;0.20;;
48791;SDS011;34587;48.816;9.420;2023-03-23T13:49:58;0.40;;;0.40;;
48791;SDS011;34587;48.816;9.420;2023-03-23T13:55:17;0.43;;;0.43;;
48791;SDS011;34587;48.816;9.420;2023-03-23T14:05:37;0.20;;;0.20;;
48791;SDS011;34587;48.816;9.420;2023-03-23T14:08:14;0.52;;;0.52;;
48791;SDS011;34587;48.816;9.420;2023-03-23T14:10:55;0.57;;;0.50;;
48791;SDS011;34587;48.816;9.420;2023-03-23T14:13:24;0.40;;;0.40;;
48791;SDS011;34587;48.816;9.420;2023-03-23T14:15:56;0.57;;;0.57;;
48791;SDS011;34587;48.816;9.420;2023-03-23T14:18:25;0.50;;;0.50;;
48791;SDS011;34587;48.816;9.420;2023-03-23T14:20:55;0.30;;;0.30;;
48791;SDS011;34587;48.816;9.420;2023-03-23T14:23:20;3.15;;;0.57;;
48791;SDS011;34587;48.816;9.420;2023-03-23T14:25:54;0.30;;;0.30;;
48791;SDS011;34587;48.816;9.420;2023-03-23T14:28:32;0.30;;;0.30;;
48791;SDS011;34587;48.816;9.420;2023-03-23T14:31:03;0.43;;;0.43;;
48791;SDS011;34587;48.816;9.420;2023-03-23T14:33:28;0.45;;;0.40;;
48791;SDS011;34587;48.816;9.420;2023-03-23T14:35:56;0.45;;;0.45;;
48791;SDS011;34587;48.816;9.420;2023-03-23T14:38:23;0.75;;;0.60;;
48791;SDS011;34587;48.816;9.420;2023-03-23T14:40:53;0.47;;;0.47;;
48791;SDS011;34587;48.816;9.420;2023-03-23T14:43:19;0.60;;;0.60;;
48791;SDS011;34587;48.816;9.420;2023-03-23T14:45:49;0.30;;;0.30;;
48791;SDS011;34587;48.816;9.420;2023-03-23T14:48:17;0.50;;;0.50;;
48791;SDS011;34587;48.816;9.420;2023-03-23T14:50:48;0.43;;;0.40;;
48791;SDS011;34587;48.816;9.420;2023-03-23T14:53:20;1.33;;;0.95;;
48791;SDS011;34587;48.816;9.420;2023-03-23T14:55:46;7.43;;;1.25;;
48791;SDS011;34587;48.816;9.420;2023-03-23T14:58:14;0.40;;;0.40;;
48791;SDS011;34587;48.816;9.420;2023-03-23T15:00:43;0.90;;;0.50;;
48791;SDS011;34587;48.816;9.420;2023-03-23T15:03:13;0.43;;;0.43;;
48791;SDS011;34587;48.816;9.420;2023-03-23T15:05:43;0.47;;;0.47;;
48791;SDS011;34587;48.816;9.420;2023-03-23T15:08:13;0.50;;;0.50;;
48791;SDS011;34587;48.816;9.420;2023-03-23T15:10:50;7.55;;;1.00;;
48791;SDS011;34587;48.816;9.420;2023-03-23T15:13:18;0.47;;;0.47;;
48791;SDS011;34587;48.816;9.420;2023-03-23T15:15:43;0.43;;;0.43;;
48791;SDS011;34587;48.816;9.420;2023-03-23T15:18:29;0.47;;;0.47;;
48791;SDS011;34587;48.816;9.420;2023-03-23T15:20:58;0.50;;;0.50;;
48791;SDS011;34587;48.816;9.420;2023-03-23T15:23:33;0.55;;;0.55;;
48791;SDS011;34587;48.816;9.420;2023-03-23T15:26:05;2.60;;;1.20;;
48791;SDS011;34587;48.816;9.420;2023-03-23T15:28:32;0.57;;;0.50;;
48791;SDS011;34587;48.816;9.420;2023-03-23T15:31:05;0.40;;;0.40;;
48791;SDS011;34587;48.816;9.420;2023-03-23T15:33:34;0.90;;;0.50;;
48791;SDS011;34587;48.816;9.420;2023-03-23T15:36:05;0.50;;;0.50;;
48791;SDS011;34587;48.816;9.420;2023-03-23T15:38:33;0.57;;;0.50;;
48791;SDS011;34587;48.816;9.420;2023-03-23T15:41:01;6.65;;;2.65;;
48791;SDS011;34587;48.816;9.420;2023-03-23T15:43:31;0.40;;;0.40;;
48791;SDS011;34587;48.816;9.420;2023-03-23T15:48:51;0.73;;;0.73;;
48791;SDS011;34587;48.816;9.420;2023-03-23T15:51:24;1.67;;;1.33;;
48791;SDS011;34587;48.816;9.420;2023-03-23T15:53:52;0.65;;;0.65;;
48791;SDS011;34587;48.816;9.420;2023-03-23T15:56:19;0.60;;;0.60;;
48791;SDS011;34587;48.816;9.420;2023-03-23T15:58:44;0.77;;;0.63;;
48791;SDS011;34587;48.816;9.420;2023-03-23T16:01:11;2.17;;;0.70;;
48791;SDS011;34587;48.816;9.420;2023-03-23T16:03:41;0.38;;;0.38;;
48791;SDS011;34587;48.816;9.420;2023-03-23T16:06:11;0.80;;;0.80;;
48791;SDS011;34587;48.816;9.420;2023-03-23T16:08:38;0.28;;;0.28;;
48791;SDS011;34587;48.816;9.420;2023-03-23T16:11:05;0.30;;;0.30;;
48791;SDS011;34587;48.816;9.420;2023-03-23T16:13:33;0.60;;;0.60;;
48791;SDS011;34587;48.816;9.420;2023-03-23T16:15:58;0.50;;;0.40;;
48791;SDS011;34587;48.816;9.420;2023-03-23T16:18:24;0.40;;;0.40;;
48791;SDS011;34587;48.816;9.420;2023-03-23T16:20:49;0.50;;;0.50;;
48791;SDS011;34587;48.816;9.420;2023-03-23T16:23:15;0.68;;;0.68;;
48791;SDS011;34587;48.816;9.420;2023-03-23T16:25:41;0.50;;;0.50;;
48791;SDS011;34587;48.816;9.420;2023-03-23T16:28:10;0.68;;;0.68;;
48791;SDS011;34587;48.816;9.420;2023-03-23T16:30:37;0.50;;;0.50;;
48791;SDS011;34587;48.816;9.420;2023-03-23T16:33:03;0.60;;;0.60;;
48791;SDS011;34587;48.816;9.420;2023-03-23T16:35:28;0.90;;;0.68;;
48791;SDS011;34587;48.816;9.420;2023-03-23T16:37:54;0.80;;;0.80;;
48791;SDS011;34587;48.816;9.420;2023-03-23T16:40:21;0.55;;;0.50;;
48791;SDS011;34587;48.816;9.420;2023-03-23T16:42:47;1.00;;;0.77;;
48791;SDS011;34587;48.816;9.420;2023-03-23T16:45:13;0.43;;;0.43;;
48791;SDS011;34587;48.816;9.420;2023-03-23T16:47:39;1.40;;;0.50;;
48791;SDS011;34587;48.816;9.420;2023-03-23T16:50:06;0.38;;;0.38;;
48791;SDS011;34587;48.816;9.420;2023-03-23T16:52:35;0.50;;;0.50;;
48791;SDS011;34587;48.816;9.420;2023-03-23T16:55:01;0.65;;;0.65;;
48791;SDS011;34587;48.816;9.420;2023-03-23T16:57:27;0.47;;;0.47;;
48791;SDS011;34587;48.816;9.420;2023-03-23T16:59:54;0.50;;;0.50;;
48791;SDS011;34587;48.816;9.420;2023-03-23T17:02:22;1.88;;;1.58;;
48791;SDS011;34587;48.816;9.420;2023-03-23T17:04:48;0.50;;;0.50;;
48791;SDS011;34587;48.816;9.420;2023-03-23T17:07:13;0.40;;;0.40;;
48791;SDS011;34587;48.816;9.420;2023-03-23T17:09:38;0.82;;;0.63;;
48791;SDS011;34587;48.816;9.420;2023-03-23T17:12:04;0.82;;;0.82;;
48791;SDS011;34587;48.816;9.420;2023-03-23T17:14:30;0.93;;;0.60;;
48791;SDS011;34587;48.816;9.420;2023-03-23T17:16:56;0.80;;;0.80;;
48791;SDS011;34587;48.816;9.420;2023-03-23T17:19:22;0.50;;;0.50;;
48791;SDS011;34587;48.816;9.420;2023-03-23T17:21:47;2.25;;;2.03;;
48791;SDS011;34587;48.816;9.420;2023-03-23T17:24:12;0.60;;;0.60;;
48791;SDS011;34587;48.816;9.420;2023-03-23T17:26:38;0.57;;;0.52;;
48791;SDS011;34587;48.816;9.420;2023-03-23T17:29:03;0.30;;;0.30;;
48791;SDS011;34587;48.816;9.420;2023-03-23T17:31:29;2.08;;;1.58;;
48791;SDS011;34587;48.816;9.420;2023-03-23T17:33:54;0.50;;;0.50;;
48791;SDS011;34587;48.816;9.420;2023-03-23T17:36:21;0.90;;;0.90;;
48791;SDS011;34587;48.816;9.420;2023-03-23T17:38:47;0.50;;;0.50;;
48791;SDS011;34587;48.816;9.420;2023-03-23T17:41:12;0.40;;;0.40;;
48791;SDS011;34587;48.816;9.420;2023-03-23T17:43:38;0.80;;;0.80;;
48791;SDS011;34587;48.816;9.420;2023-03-23T17:46:05;0.40;;;0.40;;
48791;SDS011;34587;48.816;9.420;2023-03-23T17:48:31;0.32;;;0.32;;
48791;SDS011;34587;48.816;9.420;2023-03-23T17:50:57;0.50;;;0.50;;
48791;SDS011;34587;48.816;9.420;2023-03-23T17:53:23;6.88;;;4.60;;
48791;SDS011;34587;48.816;9.420;2023-03-23T17:55:50;0.70;;;0.70;;
48791;SDS011;34587;48.816;9.420;2023-03-23T17:58:16;0.30;;;0.30;;
48791;SDS011;34587;48.816;9.420;2023-03-23T18:00:42;0.47;;;0.47;;
48791;SDS011;34587;48.816;9.420;2023-03-23T18:03:07;1.33;;;1.02;;
48791;SDS011;34587;48.816;9.420;2023-03-23T18:05:33;0.40;;;0.40;;
48791;SDS011;34587;48.816;9.420;2023-03-23T18:08:02;0.68;;;0.50;;
48791;SDS011;34587;48.816;9.420;2023-03-23T18:10:29;0.47;;;0.47;;
48791;SDS011;34587;48.816;9.420;2023-03-23T18:12:54;0.50;;;0.50;;
48791;SDS011;34587;48.816;9.420;2023-03-23T18:15:19;0.40;;;0.40;;
48791;SDS011;34587;48.816;9.420;2023-03-23T18:17:45;2.22;;;1.15;;
48791;SDS011;34587;48.816;9.420;2023-03-23T18:20:12;3.22;;;0.93;;
48791;SDS011;34587;48.816;9.420;2023-03-23T18:22:37;0.55;;;0.52;;
48791;SDS011;34587;48.816;9.420;2023-03-23T18:25:03;0.60;;;0.60;;
48791;SDS011;34587;48.816;9.420;2023-03-23T18:27:29;0.50;;;0.50;;
48791;SDS011;34587;48.816;9.420;2023-03-23T18:29:54;0.52;;;0.52;;
48791;SDS011;34587;48.816;9.420;2023-03-23T18:32:20;0.40;;;0.40;;
48791;SDS011;34587;48.816;9.420;2023-03-23T18:34:45;0.40;;;0.40;;
48791;SDS011;34587;48.816;9.420;2023-03-23T18:37:11;0.50;;;0.50;;
48791;SDS011;34587;48.816;9.420;2023-03-23T18:39:37;3.80;;;0.60;;
48791;SDS011;34587;48.816;9.420;2023-03-23T18:42:03;0.40;;;0.40;;
48791;SDS011;34587;48.816;9.420;2023-03-23T18:44:29;0.93;;;0.43;;
48791;SDS011;34587;48.816;9.420;2023-03-23T18:46:54;4.78;;;2.53;;
48791;SDS011;34587;48.816;9.420;2023-03-23T18:49:20;3.25;;;1.05;;
48791;SDS011;34587;48.816;9.420;2023-03-23T18:51:45;0.85;;;0.65;;
48791;SDS011;34587;48.816;9.420;2023-03-23T18:54:11;2.17;;;1.13;;
48791;SDS011;34587;48.816;9.420;2023-03-23T18:56:37;0.70;;;0.70;;
48791;SDS011;34587;48.816;9.420;2023-03-23T18:59:02;0.50;;;0.50;;
48791;SDS011;34587;48.816;9.420;2023-03-23T19:01:28;1.20;;;1.10;;
48791;SDS011;34587;48.816;9.420;2023-03-23T19:03:53;1.25;;;0.68;;
48791;SDS011;34587;48.816;9.420;2023-03-23T19:06:21;0.32;;;0.32;;
48791;SDS011;34587;48.816;9.420;2023-03-23T19:08:49;0.60;;;0.60;;
48791;SDS011;34587;48.816;9.420;2023-03-23T19:11:16;0.60;;;0.60;;
48791;SDS011;34587;48.816;9.420;2023-03-23T19:13:42;0.40;;;0.40;;
48791;SDS011;34587;48.816;9.420;2023-03-23T19:16:07;2.08;;;0.73;;
48791;SDS011;34587;48.816;9.420;2023-03-23T19:18:32;0.90;;;0.40;;
48791;SDS011;34587;48.816;9.420;2023-03-23T19:20:58;2.95;;;0.50;;
48791;SDS011;34587;48.816;9.420;2023-03-23T19:23:23;0.60;;;0.60;;
48791;SDS011;34587;48.816;9.420;2023-03-23T19:25:49;0.50;;;0.50;;
48791;SDS011;34587;48.816;9.420;2023-03-23T19:28:17;0.50;;;0.50;;
48791;SDS011;34587;48.816;9.420;2023-03-23T19:30:47;1.05;;;1.02;;
48791;SDS011;34587;48.816;9.420;2023-03-23T19:33:17;1.10;;;0.55;;
48791;SDS011;34587;48.816;9.420;2023-03-23T19:35:46;0.40;;;0.40;;
48791;SDS011;34587;48.816;9.420;2023-03-23T19:38:14;2.50;;;0.80;;
48791;SDS011;34587;48.816;9.420;2023-03-23T19:40:40;0.82;;;0.82;;
48791;SDS011;34587;48.816;9.420;2023-03-23T19:43:05;0.40;;;0.40;;
48791;SDS011;34587;48.816;9.420;2023-03-23T19:45:31;0.43;;;0.43;;
48791;SDS011;34587;48.816;9.420;2023-03-23T19:47:56;0.98;;;0.90;;
48791;SDS011;34587;48.816;9.420;2023-03-23T19:50:21;0.47;;;0.47;;
48791;SDS011;34587;48.816;9.420;2023-03-23T19:52:47;1.05;;;0.63;;
48791;SDS011;34587;48.816;9.420;2023-03-23T19:55:12;0.55;;;0.55;;
48791;SDS011;34587;48.816;9.420;2023-03-23T19:57:37;0.35;;;0.35;;
48791;SDS011;34587;48.816;9.420;2023-03-23T20:00:03;1.52;;;1.23;;
48791;SDS011;34587;48.816;9.420;2023-03-23T20:02:30;0.47;;;0.47;;
48791;SDS011;34587;48.816;9.420;2023-03-23T20:04:56;0.55;;;0.55;;
48791;SDS011;34587;48.816;9.420;2023-03-23T20:07:21;0.40;;;0.40;;
48791;SDS011;34587;48.816;9.420;2023-03-23T20:09:46;0.50;;;0.50;;
48791;SDS011;34587;48.816;9.420;2023-03-23T20:12:12;0.43;;;0.43;;
48791;SDS011;34587;48.816;9.420;2023-03-23T20:14:37;0.50;;;0.50;;
48791;SDS011;34587;48.816;9.420;2023-03-23T20:17:07;0.52;;;0.47;;
48791;SDS011;34587;48.816;9.420;2023-03-23T20:19:34;0.82;;;0.57;;
48791;SDS011;34587;48.816;9.420;2023-03-23T20:22:00;0.47;;;0.47;;
48791;SDS011;34587;48.816;9.420;2023-03-23T20:24:25;0.63;;;0.40;;
48791;SDS011;34587;48.816;9.420;2023-03-23T20:26:51;0.50;;;0.50;;
48791;SDS011;34587;48.816;9.420;2023-03-23T20:29:16;0.50;;;0.50;;
48791;SDS011;34587;48.816;9.420;2023-03-23T20:31:41;0.65;;;0.57;;
48791;SDS011;34587;48.816;9.420;2023-03-23T20:34:10;0.80;;;0.75;;
48791;SDS011;34587;48.816;9.420;2023-03-23T20:36:39;2.22;;;0.90;;
48791;SDS011;34587;48.816;9.420;2023-03-23T20:39:14;1.88;;;0.57;;
48791;SDS011;34587;48.816;9.420;2023-03-23T20:41:44;0.65;;;0.63;;
48791;SDS011;34587;48.816;9.420;2023-03-23T20:44:14;0.80;;;0.80;;
48791;SDS011;34587;48.816;9.420;2023-03-23T20:46:41;0.68;;;0.52;;
48791;SDS011;34587;48.816;9.420;2023-03-23T20:49:11;1.00;;;0.50;;
48791;SDS011;34587;48.816;9.420;2023-03-23T20:51:37;7.97;;;1.67;;